Time;durP1;ratioP1;P1;durP2;ratioP2;P2;SDS_P1;SDS_P2;PMS_P1;PMS_P2;Temp;Humidity;BMP_temperature;BMP_pressure;BME280_temperature;BME280_humidity;BME280_pressure;Samples;Min_cycle;Max_cycle;Signal;HPM_P1;HPM_P2
2022/07/16 00:03:05;;;;;;;;;;;27.30;93.70;;;;;;5146321;27;19910;-46
2022/07/16 00:05:32;;;;;;;;;;;27.20;93.70;;;;;;5145013;27;19915;-47
2022/07/16 00:07:58;;;;;;;;;;;27.20;93.70;;;;;;5136538;27;19948;-50
2022/07/16 00:10:24;;;;;;;;;;;27.20;93.70;;;;;;5144697;27;19907;-43
2022/07/16 00:12:50;;;;;;;;;;;27.20;93.70;;;;;;5146728;27;19907;-45
2022/07/16 00:15:16;;;;;;;;;;;27.20;93.70;;;;;;5147152;27;20245;-45
2022/07/16 00:17:42;;;;;;;;;;;27.10;93.60;;;;;;5145653;27;19903;-49
2022/07/16 00:20:09;;;;;;;;;;;27.10;93.70;;;;;;5147100;27;20091;-45
2022/07/16 00:22:36;;;;;;;;;;;27.10;93.70;;;;;;5146250;27;20073;-50
2022/07/16 00:25:03;;;;;;;;;;;27.00;93.70;;;;;;5146544;27;19907;-45
2022/07/16 00:27:29;;;;;;;;;;;27.10;93.60;;;;;;5143263;27;19903;-43
2022/07/16 00:29:55;;;;;;;;;;;27.00;93.40;;;;;;5146946;27;19974;-44
2022/07/16 00:32:21;;;;;;;;;;;27.00;93.30;;;;;;5146244;27;19899;-43
2022/07/16 00:34:47;;;;;;;;;;;26.90;93.40;;;;;;5146018;27;19952;-43
2022/07/16 00:37:13;;;;;;;;;;;26.90;93.30;;;;;;5145716;27;19969;-42
2022/07/16 00:39:39;;;;;;;;;;;27.00;93.30;;;;;;5146491;27;19914;-48
2022/07/16 00:42:07;;;;;;;;;;;26.90;93.20;;;;;;5145569;27;20166;-52
2022/07/16 00:44:33;;;;;;;;;;;26.90;93.30;;;;;;5146955;27;19907;-44
2022/07/16 00:46:59;;;;;;;;;;;26.90;93.20;;;;;;5146665;27;19903;-46
2022/07/16 00:49:25;;;;;;;;;;;26.90;93.10;;;;;;5145992;27;19915;-45
2022/07/16 00:51:52;;;;;;;;;;;26.90;93.10;;;;;;5146242;27;19929;-44
2022/07/16 00:54:19;;;;;;;;;;;26.90;93.10;;;;;;5146292;27;19979;-44
2022/07/16 00:56:46;;;;;;;;;;;26.90;93.00;;;;;;5145881;27;20023;-44
2022/07/16 00:59:12;;;;;;;;;;;26.90;92.90;;;;;;5146241;27;19911;-45
2022/07/16 01:01:39;;;;;;;;;;;26.90;92.90;;;;;;5145399;27;19906;-43
2022/07/16 01:04:06;;;;;;;;;;;26.90;92.90;;;;;;5145846;27;20091;-46
2022/07/16 01:06:32;;;;;;;;;;;26.90;92.80;;;;;;5145923;27;19937;-43
2022/07/16 01:08:59;;;;;;;;;;;26.90;92.50;;;;;;5145977;27;20210;-42
2022/07/16 01:11:25;;;;;;;;;;;26.90;92.50;;;;;;5145597;27;19906;-49
2022/07/16 01:13:51;;;;;;;;;;;26.90;92.40;;;;;;5145728;27;19939;-45
2022/07/16 01:16:19;;;;;;;;;;;26.90;92.20;;;;;;5144505;27;19922;-47
2022/07/16 01:18:46;;;;;;;;;;;26.90;92.00;;;;;;5145087;27;19907;-53
2022/07/16 01:21:13;;;;;;;;;;;26.90;92.00;;;;;;5145464;27;19974;-48
2022/07/16 01:23:39;;;;;;;;;;;26.90;92.00;;;;;;5145471;27;19911;-45
2022/07/16 01:26:05;;;;;;;;;;;26.80;91.80;;;;;;5145342;27;19903;-43
2022/07/16 01:28:32;;;;;;;;;;;26.80;91.70;;;;;;5145584;27;19919;-44
2022/07/16 01:30:58;;;;;;;;;;;26.80;91.60;;;;;;5145562;27;19954;-45
2022/07/16 01:33:34;;;;;;;;;;;26.80;91.60;;;;;;5145103;27;19899;-51
2022/07/16 01:36:05;;;;;;;;;;;26.80;91.40;;;;;;5145425;27;19912;-44
2022/07/16 01:38:31;;;;;;;;;;;26.70;91.20;;;;;;5145345;27;19907;-50
2022/07/16 01:40:58;;;;;;;;;;;26.70;91.10;;;;;;5145238;27;19900;-44
2022/07/16 01:43:25;;;;;;;;;;;26.70;91.00;;;;;;5145223;27;19903;-46
2022/07/16 01:45:52;;;;;;;;;;;26.70;91.00;;;;;;5145355;27;19899;-44
2022/07/16 01:48:18;;;;;;;;;;;26.70;91.10;;;;;;5145124;27;19899;-46
2022/07/16 01:50:45;;;;;;;;;;;26.70;91.10;;;;;;5145159;27;19974;-44
2022/07/16 01:53:12;;;;;;;;;;;26.70;91.00;;;;;;5145116;27;20202;-51
2022/07/16 01:55:38;;;;;;;;;;;26.70;91.10;;;;;;5144916;27;19908;-43
2022/07/16 01:58:06;;;;;;;;;;;26.60;91.00;;;;;;5145101;28;19934;-47
2022/07/16 02:00:33;;;;;;;;;;;26.60;91.10;;;;;;5145503;28;19912;-45
2022/07/16 02:02:59;;;;;;;;;;;26.60;91.10;;;;;;5144858;28;19903;-49
2022/07/16 02:05:26;;;;;;;;;;;26.60;91.00;;;;;;5145571;28;19914;-45
2022/07/16 02:07:52;;;;;;;;;;;26.60;91.10;;;;;;5145097;28;19903;-45
2022/07/16 02:10:18;;;;;;;;;;;26.60;90.90;;;;;;5145400;28;19923;-43
2022/07/16 02:12:45;;;;;;;;;;;26.60;91.00;;;;;;5126772;28;19903;-46
2022/07/16 02:15:11;;;;;;;;;;;26.60;90.90;;;;;;5145452;28;19946;-46
2022/07/16 02:17:38;;;;;;;;;;;26.60;90.80;;;;;;5144715;28;19899;-44
2022/07/16 02:20:06;;;;;;;;;;;26.60;90.80;;;;;;5145299;28;19907;-51
2022/07/16 02:22:32;;;;;;;;;;;26.60;90.80;;;;;;5144825;28;19903;-43
2022/07/16 02:24:59;;;;;;;;;;;26.60;90.60;;;;;;5144935;28;20184;-47
2022/07/16 02:27:25;;;;;;;;;;;26.50;90.50;;;;;;5146934;27;20175;-48
2022/07/16 02:29:51;;;;;;;;;;;26.50;90.60;;;;;;5149430;27;20236;-43
2022/07/16 02:32:17;;;;;;;;;;;26.50;90.50;;;;;;5148604;27;19940;-46
2022/07/16 02:34:43;;;;;;;;;;;26.50;90.50;;;;;;5149163;27;20268;-44
2022/07/16 02:37:10;;;;;;;;;;;26.50;90.30;;;;;;5148800;27;19903;-43
2022/07/16 02:39:36;;;;;;;;;;;26.50;90.40;;;;;;5149068;27;19907;-47
2022/07/16 02:42:02;;;;;;;;;;;26.50;90.40;;;;;;5148360;27;20179;-46
2022/07/16 02:44:28;;;;;;;;;;;26.50;90.40;;;;;;5148797;27;19915;-46
2022/07/16 02:46:54;;;;;;;;;;;26.50;90.40;;;;;;5148674;27;19899;-43
2022/07/16 02:49:21;;;;;;;;;;;26.40;90.40;;;;;;5148599;27;20263;-45
2022/07/16 02:51:47;;;;;;;;;;;26.40;90.40;;;;;;5148808;27;19895;-43
2022/07/16 02:54:13;;;;;;;;;;;26.40;90.60;;;;;;5148894;27;19907;-50
2022/07/16 02:56:39;;;;;;;;;;;26.40;90.70;;;;;;5148537;27;19942;-45
2022/07/16 02:59:05;;;;;;;;;;;26.40;90.60;;;;;;5148639;27;20084;-50
2022/07/16 03:01:31;;;;;;;;;;;26.30;90.60;;;;;;5148401;27;20300;-44
2022/07/16 03:03:57;;;;;;;;;;;26.30;90.70;;;;;;5148432;27;19911;-44
2022/07/16 03:06:24;;;;;;;;;;;26.30;90.80;;;;;;5148554;27;19928;-46
2022/07/16 03:08:50;;;;;;;;;;;26.30;90.90;;;;;;5148554;27;19907;-43
2022/07/16 03:11:17;;;;;;;;;;;26.30;90.90;;;;;;5148144;27;19970;-46
2022/07/16 03:13:43;;;;;;;;;;;26.30;90.90;;;;;;5148566;27;19908;-48
2022/07/16 03:16:09;;;;;;;;;;;26.30;90.70;;;;;;5148349;27;19926;-48
2022/07/16 03:18:35;;;;;;;;;;;26.30;90.80;;;;;;5148006;27;19911;-48
2022/07/16 03:21:02;;;;;;;;;;;26.30;90.70;;;;;;5148258;27;19926;-47
2022/07/16 03:23:28;;;;;;;;;;;26.30;90.70;;;;;;5147976;27;20238;-45
2022/07/16 03:25:54;;;;;;;;;;;26.30;90.70;;;;;;5148091;27;19899;-45
2022/07/16 03:28:20;;;;;;;;;;;26.30;90.80;;;;;;5148031;27;19945;-48
2022/07/16 03:30:46;;;;;;;;;;;26.30;90.80;;;;;;5148082;27;19899;-47
2022/07/16 03:33:12;;;;;;;;;;;26.20;90.70;;;;;;5147912;27;19906;-45
2022/07/16 03:35:38;;;;;;;;;;;26.20;90.80;;;;;;5147718;27;20170;-46
2022/07/16 03:40:51;;;;;;;;;;;26.20;90.50;;;;;;5147588;27;19922;-49
2022/07/16 03:43:17;;;;;;;;;;;26.20;90.50;;;;;;5147662;27;19938;-44
2022/07/16 03:45:43;;;;;;;;;;;26.20;90.60;;;;;;5147692;27;20187;-47
2022/07/16 03:48:09;;;;;;;;;;;26.20;90.50;;;;;;5147489;27;19903;-46
2022/07/16 03:50:35;;;;;;;;;;;26.20;90.50;;;;;;5148130;27;19969;-43
2022/07/16 03:53:01;;;;;;;;;;;26.20;90.40;;;;;;5147481;27;19903;-44
2022/07/16 03:55:27;;;;;;;;;;;26.20;90.30;;;;;;5147840;27;19966;-44
2022/07/16 03:57:54;;;;;;;;;;;26.10;90.30;;;;;;5147669;27;20184;-45
2022/07/16 04:00:20;;;;;;;;;;;26.20;90.30;;;;;;5147815;27;19963;-47
2022/07/16 04:02:46;;;;;;;;;;;26.10;90.40;;;;;;5147272;27;19914;-49
2022/07/16 04:05:12;;;;;;;;;;;26.10;90.40;;;;;;5147332;27;19911;-44
2022/07/16 04:07:38;;;;;;;;;;;26.20;90.60;;;;;;5147496;27;19926;-45
2022/07/16 04:10:04;;;;;;;;;;;26.20;90.60;;;;;;5147850;27;19966;-44
2022/07/16 04:12:32;;;;;;;;;;;26.10;90.60;;;;;;5147018;27;20112;-42
2022/07/16 04:14:59;;;;;;;;;;;26.10;90.50;;;;;;5147619;27;19925;-43
2022/07/16 04:17:25;;;;;;;;;;;26.10;90.50;;;;;;5147050;27;19904;-46
2022/07/16 04:19:51;;;;;;;;;;;26.10;90.60;;;;;;5147322;27;19903;-45
2022/07/16 04:22:17;;;;;;;;;;;26.10;90.50;;;;;;5147031;27;19911;-46
2022/07/16 04:24:43;;;;;;;;;;;26.10;90.40;;;;;;5147356;27;19910;-45
2022/07/16 04:27:10;;;;;;;;;;;26.10;90.50;;;;;;5146859;27;19904;-51
2022/07/16 04:29:36;;;;;;;;;;;26.10;90.50;;;;;;5147403;27;19903;-48
2022/07/16 04:32:02;;;;;;;;;;;26.10;90.50;;;;;;5146854;27;19944;-44
2022/07/16 04:34:28;;;;;;;;;;;26.10;90.40;;;;;;5146946;27;19910;-45
2022/07/16 04:36:55;;;;;;;;;;;26.00;90.30;;;;;;5146703;27;19999;-47
2022/07/16 04:39:21;;;;;;;;;;;26.10;90.30;;;;;;5146957;27;19903;-47
2022/07/16 04:41:47;;;;;;;;;;;26.00;90.30;;;;;;5146524;27;19903;-43
2022/07/16 04:44:13;;;;;;;;;;;26.00;90.20;;;;;;5146674;27;19969;-45
2022/07/16 04:46:39;;;;;;;;;;;26.10;90.20;;;;;;5146657;27;20196;-44
2022/07/16 04:49:05;;;;;;;;;;;26.10;90.20;;;;;;5146310;27;19941;-44
2022/07/16 04:51:32;;;;;;;;;;;26.00;90.20;;;;;;5146274;27;19919;-43
2022/07/16 04:53:58;;;;;;;;;;;26.00;90.20;;;;;;5146936;27;20231;-45
2022/07/16 04:56:24;;;;;;;;;;;26.00;90.20;;;;;;5146321;27;19908;-43
2022/07/16 04:58:50;;;;;;;;;;;26.00;90.30;;;;;;5146232;27;19899;-42
2022/07/16 05:01:16;;;;;;;;;;;26.00;90.20;;;;;;5146500;27;19915;-43
2022/07/16 05:03:42;;;;;;;;;;;26.00;90.10;;;;;;5146262;27;19980;-49
2022/07/16 05:06:09;;;;;;;;;;;26.00;90.20;;;;;;5146100;27;19908;-45
2022/07/16 05:08:35;;;;;;;;;;;26.00;90.10;;;;;;5146153;27;19903;-46
2022/07/16 05:11:01;;;;;;;;;;;26.00;90.10;;;;;;5146355;27;19914;-45
2022/07/16 05:13:27;;;;;;;;;;;26.10;90.00;;;;;;5145842;27;20180;-46
2022/07/16 05:15:53;;;;;;;;;;;26.00;90.00;;;;;;5146012;27;19911;-46
2022/07/16 05:18:19;;;;;;;;;;;26.10;90.00;;;;;;5145950;27;19930;-43
2022/07/16 05:20:45;;;;;;;;;;;26.00;90.00;;;;;;5145743;27;19978;-43
2022/07/16 05:23:11;;;;;;;;;;;26.00;90.00;;;;;;5145925;27;20119;-43
2022/07/16 05:25:38;;;;;;;;;;;26.00;90.10;;;;;;5145906;27;19907;-46
2022/07/16 05:28:04;;;;;;;;;;;26.00;90.00;;;;;;5145836;27;19906;-46
2022/07/16 05:30:30;;;;;;;;;;;26.00;90.00;;;;;;5146201;27;19907;-49
2022/07/16 05:32:56;;;;;;;;;;;26.00;90.00;;;;;;5145761;27;19948;-44
2022/07/16 05:35:22;;;;;;;;;;;26.00;90.10;;;;;;5145843;27;19911;-48
2022/07/16 05:37:48;;;;;;;;;;;26.00;90.10;;;;;;5145662;27;19970;-44
2022/07/16 05:40:15;;;;;;;;;;;25.90;90.10;;;;;;5146084;27;19942;-48
2022/07/16 05:42:41;;;;;;;;;;;25.90;90.50;;;;;;5145643;27;19907;-46
2022/07/16 05:45:08;;;;;;;;;;;25.90;90.10;;;;;;5145854;27;19911;-42
2022/07/16 05:47:34;;;;;;;;;;;25.90;90.00;;;;;;5145471;27;19904;-42
2022/07/16 05:50:01;;;;;;;;;;;25.90;90.10;;;;;;5145734;27;19904;-43
2022/07/16 05:52:27;;;;;;;;;;;25.90;90.10;;;;;;5141094;28;19907;-43
2022/07/16 05:54:53;;;;;;;;;;;25.90;90.20;;;;;;5126860;28;20114;-43
2022/07/16 05:57:19;;;;;;;;;;;25.90;90.20;;;;;;5134163;27;20196;-43
2022/07/16 05:59:45;;;;;;;;;;;25.90;90.30;;;;;;5145633;28;19931;-43
2022/07/16 06:02:11;;;;;;;;;;;25.90;90.30;;;;;;5144890;27;19903;-43
2022/07/16 06:04:37;;;;;;;;;;;25.90;90.50;;;;;;5145280;28;19903;-49
2022/07/16 06:07:03;;;;;;;;;;;25.90;90.60;;;;;;5134196;28;19911;-43
2022/07/16 06:09:30;;;;;;;;;;;25.90;90.60;;;;;;5146123;28;19934;-45
2022/07/16 06:11:56;;;;;;;;;;;25.90;90.70;;;;;;5145932;28;19903;-50
2022/07/16 06:14:22;;;;;;;;;;;25.80;90.70;;;;;;5145468;28;19903;-45
2022/07/16 06:16:48;;;;;;;;;;;25.80;90.70;;;;;;5145198;28;19911;-46
2022/07/16 06:19:14;;;;;;;;;;;25.80;90.70;;;;;;5145479;28;20202;-53
2022/07/16 06:21:40;;;;;;;;;;;25.80;90.80;;;;;;5145114;28;19903;-45
2022/07/16 06:24:07;;;;;;;;;;;25.80;91.00;;;;;;5145244;28;20114;-40
2022/07/16 06:26:33;;;;;;;;;;;25.70;91.10;;;;;;5145159;28;19903;-43
2022/07/16 06:28:59;;;;;;;;;;;25.70;91.20;;;;;;5145308;28;19905;-43
2022/07/16 06:31:25;;;;;;;;;;;25.70;91.30;;;;;;5145039;28;19907;-43
2022/07/16 06:33:51;;;;;;;;;;;25.70;91.50;;;;;;5145131;28;19940;-44
2022/07/16 06:36:17;;;;;;;;;;;25.70;91.50;;;;;;5145010;28;19951;-43
2022/07/16 06:38:43;;;;;;;;;;;25.70;91.50;;;;;;5145025;28;19911;-49
2022/07/16 06:41:09;;;;;;;;;;;25.70;91.60;;;;;;5145150;28;19904;-42
2022/07/16 06:43:36;;;;;;;;;;;25.70;91.60;;;;;;5144954;28;20031;-47
2022/07/16 06:46:02;;;;;;;;;;;25.60;91.70;;;;;;5144872;28;19965;-43
2022/07/16 06:48:28;;;;;;;;;;;25.60;91.70;;;;;;5144968;28;19899;-45
2022/07/16 06:50:54;;;;;;;;;;;25.60;91.80;;;;;;5144898;28;20100;-43
2022/07/16 06:53:21;;;;;;;;;;;25.60;91.70;;;;;;5143906;28;19906;-47
2022/07/16 06:55:47;;;;;;;;;;;25.60;91.80;;;;;;5144940;28;19946;-45
2022/07/16 06:58:13;;;;;;;;;;;25.60;91.90;;;;;;5144790;28;19899;-42
2022/07/16 07:00:39;;;;;;;;;;;25.50;91.90;;;;;;5144804;28;20192;-43
2022/07/16 07:03:05;;;;;;;;;;;25.50;91.80;;;;;;5143658;28;19952;-42
2022/07/16 07:05:31;;;;;;;;;;;25.60;91.80;;;;;;5145265;28;20177;-44
2022/07/16 07:07:57;;;;;;;;;;;25.50;91.70;;;;;;5137385;28;19904;-42
2022/07/16 07:10:23;;;;;;;;;;;25.50;91.60;;;;;;5124566;28;19908;-47
2022/07/16 07:12:52;;;;;;;;;;;25.50;91.50;;;;;;5124153;28;19911;-44
2022/07/16 07:15:19;;;;;;;;;;;25.50;91.30;;;;;;5127797;28;19914;-42
2022/07/16 07:17:45;;;;;;;;;;;25.50;91.30;;;;;;5127694;28;19903;-49
2022/07/16 07:20:12;;;;;;;;;;;25.50;91.00;;;;;;5127645;28;19904;-45
2022/07/16 07:22:38;;;;;;;;;;;25.50;91.00;;;;;;5127657;28;19914;-44
2022/07/16 07:25:04;;;;;;;;;;;25.50;91.00;;;;;;5127903;28;19939;-46
2022/07/16 07:27:31;;;;;;;;;;;25.50;90.90;;;;;;5127772;28;20253;-43
2022/07/16 07:29:57;;;;;;;;;;;25.50;91.00;;;;;;5127984;28;19911;-43
2022/07/16 07:32:23;;;;;;;;;;;25.50;91.00;;;;;;5127401;28;19938;-46
2022/07/16 07:34:49;;;;;;;;;;;25.50;91.00;;;;;;5127650;28;19947;-45
2022/07/16 07:37:15;;;;;;;;;;;25.50;91.00;;;;;;5127405;28;19953;-41
2022/07/16 07:39:42;;;;;;;;;;;25.50;91.00;;;;;;5139967;27;19904;-43
2022/07/16 07:42:08;;;;;;;;;;;25.50;91.00;;;;;;5127259;28;19903;-45
2022/07/16 07:44:34;;;;;;;;;;;25.40;91.20;;;;;;5127464;28;19900;-51
2022/07/16 07:47:00;;;;;;;;;;;25.40;91.10;;;;;;5127032;28;19983;-43
2022/07/16 07:49:27;;;;;;;;;;;25.40;91.10;;;;;;5127372;28;19931;-43
2022/07/16 07:51:54;;;;;;;;;;;25.40;91.20;;;;;;5127243;28;19908;-46
2022/07/16 07:54:21;;;;;;;;;;;25.40;91.30;;;;;;5127148;28;19903;-45
2022/07/16 07:56:48;;;;;;;;;;;25.40;91.40;;;;;;5127072;28;19908;-50
2022/07/16 07:59:14;;;;;;;;;;;25.40;91.20;;;;;;5127278;28;20076;-53
2022/07/16 08:01:40;;;;;;;;;;;25.40;91.30;;;;;;5126965;28;20211;-47
2022/07/16 08:04:06;;;;;;;;;;;25.40;91.40;;;;;;5126996;28;19910;-46
2022/07/16 08:06:32;;;;;;;;;;;25.40;91.50;;;;;;5127006;28;19914;-43
2022/07/16 08:08:59;;;;;;;;;;;25.40;91.60;;;;;;5127029;28;19935;-43
2022/07/16 08:11:25;;;;;;;;;;;25.30;91.50;;;;;;5126635;28;19964;-45
2022/07/16 08:13:51;;;;;;;;;;;25.30;91.60;;;;;;5126933;28;19899;-44
2022/07/16 08:16:17;;;;;;;;;;;25.40;91.50;;;;;;5126663;28;20107;-43
2022/07/16 08:18:43;;;;;;;;;;;25.30;91.50;;;;;;5126603;28;19945;-44
2022/07/16 08:21:09;;;;;;;;;;;25.30;91.40;;;;;;5126646;28;19988;-43
2022/07/16 08:26:19;;;;;;;;;;;25.30;91.40;;;;;;5126168;28;19915;-43
2022/07/16 08:28:46;;;;;;;;;;;25.30;91.30;;;;;;5126398;28;20255;-43
2022/07/16 08:31:13;;;;;;;;;;;25.30;91.40;;;;;;5126258;28;19908;-45
2022/07/16 08:33:39;;;;;;;;;;;25.30;91.30;;;;;;5126467;28;20190;-43
2022/07/16 08:36:05;;;;;;;;;;;25.30;91.30;;;;;;5126190;28;19915;-44
2022/07/16 08:38:32;;;;;;;;;;;25.30;91.20;;;;;;5126128;28;19951;-45
2022/07/16 08:40:58;;;;;;;;;;;25.30;91.20;;;;;;5126254;28;19961;-48
2022/07/16 08:43:24;;;;;;;;;;;25.30;91.20;;;;;;5125963;28;19907;-43
2022/07/16 08:45:51;;;;;;;;;;;25.30;91.20;;;;;;5126024;28;20085;-43
2022/07/16 08:48:17;;;;;;;;;;;25.30;91.20;;;;;;5107692;28;20065;-43
2022/07/16 08:50:43;;;;;;;;;;;25.30;91.20;;;;;;5126012;28;19939;-43
2022/07/16 08:53:10;;;;;;;;;;;25.30;91.20;;;;;;5130769;27;19899;-45
2022/07/16 08:55:37;;;;;;;;;;;25.30;91.30;;;;;;5146842;27;19906;-45
2022/07/16 08:58:06;;;;;;;;;;;25.30;91.20;;;;;;5146377;27;19947;-45
2022/07/16 09:00:32;;;;;;;;;;;25.20;91.10;;;;;;5146943;27;20210;-42
2022/07/16 09:02:58;;;;;;;;;;;25.20;91.10;;;;;;5146109;27;19911;-43
2022/07/16 09:05:25;;;;;;;;;;;25.20;91.30;;;;;;5146113;27;19938;-42
2022/07/16 09:07:51;;;;;;;;;;;25.20;91.40;;;;;;5146157;27;19909;-46
2022/07/16 09:10:17;;;;;;;;;;;25.20;91.40;;;;;;5146533;27;19899;-50
2022/07/16 09:12:45;;;;;;;;;;;25.20;91.50;;;;;;5146042;27;20100;-51
2022/07/16 09:15:26;;;;;;;;;;;25.10;91.60;;;;;;5146386;27;19899;-42
2022/07/16 09:18:09;;;;;;;;;;;25.10;91.60;;;;;;5145897;27;19907;-42
2022/07/16 09:20:36;;;;;;;;;;;25.10;91.70;;;;;;5146419;27;19936;-45
2022/07/16 09:23:02;;;;;;;;;;;25.10;92.00;;;;;;5145903;27;20117;-41
2022/07/16 09:25:28;;;;;;;;;;;25.10;92.10;;;;;;5146199;27;20144;-42
2022/07/16 09:27:58;;;;;;;;;;;25.10;92.10;;;;;;5145732;27;19975;-43
2022/07/16 09:30:25;;;;;;;;;;;25.10;92.20;;;;;;5146138;27;20183;-43
2022/07/16 09:32:51;;;;;;;;;;;25.10;92.20;;;;;;5145796;27;19907;-47
2022/07/16 09:35:18;;;;;;;;;;;25.00;92.20;;;;;;5145797;27;19953;-42
2022/07/16 09:37:48;;;;;;;;;;;25.00;92.10;;;;;;5144769;27;19903;-45
2022/07/16 09:40:15;;;;;;;;;;;25.00;92.00;;;;;;5146132;27;19903;-42
2022/07/16 09:42:41;;;;;;;;;;;25.10;91.90;;;;;;5145496;27;19952;-43
2022/07/16 09:45:08;;;;;;;;;;;25.00;91.70;;;;;;5145952;27;19978;-45
2022/07/16 09:47:36;;;;;;;;;;;25.00;91.60;;;;;;5145733;27;19903;-43
2022/07/16 09:50:02;;;;;;;;;;;25.00;91.70;;;;;;5145562;27;19910;-42
2022/07/16 09:52:33;;;;;;;;;;;25.00;91.70;;;;;;5145329;27;20092;-42
2022/07/16 09:54:59;;;;;;;;;;;25.00;91.70;;;;;;5145797;27;19903;-42
2022/07/16 09:57:27;;;;;;;;;;;25.00;91.60;;;;;;5145388;27;19903;-41
2022/07/16 09:59:54;;;;;;;;;;;25.00;91.70;;;;;;5145784;28;20157;-43
2022/07/16 10:02:20;;;;;;;;;;;25.00;91.60;;;;;;5145353;28;19935;-46
2022/07/16 10:04:46;;;;;;;;;;;25.00;91.70;;;;;;5145656;28;19911;-43
2022/07/16 10:07:13;;;;;;;;;;;25.00;91.80;;;;;;5145263;28;20145;-43
2022/07/16 10:09:39;;;;;;;;;;;25.00;91.70;;;;;;5145783;28;19910;-43
2022/07/16 10:12:08;;;;;;;;;;;24.90;91.50;;;;;;5145448;28;20012;-41
2022/07/16 10:14:35;;;;;;;;;;;25.00;91.40;;;;;;5145399;28;19966;-42
2022/07/16 10:17:10;;;;;;;;;;;24.90;91.30;;;;;;5145289;28;19904;-44
2022/07/16 10:19:36;;;;;;;;;;;25.00;91.20;;;;;;5145450;28;19935;-47
2022/07/16 10:22:19;;;;;;;;;;;24.90;91.30;;;;;;5145216;28;20145;-44
2022/07/16 10:24:47;;;;;;;;;;;24.90;91.50;;;;;;5145644;28;19908;-41
2022/07/16 10:27:17;;;;;;;;;;;24.90;91.50;;;;;;5145088;28;20184;-41
2022/07/16 10:29:43;;;;;;;;;;;24.90;91.50;;;;;;5145495;28;19975;-44
2022/07/16 10:32:27;;;;;;;;;;;24.90;91.60;;;;;;5145200;28;19903;-44
2022/07/16 10:34:54;;;;;;;;;;;24.90;91.40;;;;;;5144221;28;19910;-43
2022/07/16 10:37:30;;;;;;;;;;;24.90;91.40;;;;;;5145096;28;20191;-44
2022/07/16 10:40:01;;;;;;;;;;;24.90;91.40;;;;;;5145648;28;19904;-46
2022/07/16 10:42:27;;;;;;;;;;;24.90;91.60;;;;;;5145549;28;19903;-42
2022/07/16 10:44:54;;;;;;;;;;;24.80;91.60;;;;;;5145350;28;19970;-42
2022/07/16 10:47:20;;;;;;;;;;;24.90;91.60;;;;;;5145354;27;19935;-43
2022/07/16 10:49:46;;;;;;;;;;;24.90;91.70;;;;;;5149308;27;19903;-41
2022/07/16 10:52:14;;;;;;;;;;;24.80;91.70;;;;;;5148804;27;19903;-45
2022/07/16 10:54:43;;;;;;;;;;;24.80;91.70;;;;;;5149265;27;19904;-42
2022/07/16 10:57:10;;;;;;;;;;;24.80;91.70;;;;;;5148879;27;20153;-42
2022/07/16 10:59:37;;;;;;;;;;;24.80;91.70;;;;;;5148068;27;19910;-43
2022/07/16 11:02:05;;;;;;;;;;;24.80;91.80;;;;;;5148731;27;19907;-42
2022/07/16 11:04:43;;;;;;;;;;;24.80;91.90;;;;;;5148767;27;19910;-42
2022/07/16 11:07:11;;;;;;;;;;;24.80;91.70;;;;;;5148524;27;19914;-46
2022/07/16 11:09:38;;;;;;;;;;;24.90;91.50;;;;;;5148546;27;20135;-44
2022/07/16 11:12:06;;;;;;;;;;;24.80;91.50;;;;;;5147173;27;19935;-44
2022/07/16 11:14:33;;;;;;;;;;;24.80;91.40;;;;;;5148450;27;19906;-50
2022/07/16 11:16:59;;;;;;;;;;;24.90;91.60;;;;;;5148421;27;20335;-45
2022/07/16 11:19:25;;;;;;;;;;;24.90;91.60;;;;;;5148594;27;19926;-45
2022/07/16 11:21:59;;;;;;;;;;;25.00;91.60;;;;;;5148178;27;19954;-44
2022/07/16 11:24:26;;;;;;;;;;;25.10;91.60;;;;;;5148275;27;19910;-44
2022/07/16 11:26:53;;;;;;;;;;;25.20;91.60;;;;;;5148176;27;19907;-46
2022/07/16 11:29:20;;;;;;;;;;;25.20;91.60;;;;;;5148368;27;19938;-45
2022/07/16 11:31:47;;;;;;;;;;;25.40;91.40;;;;;;5148093;27;19907;-46
2022/07/16 11:34:13;;;;;;;;;;;25.50;91.20;;;;;;5148190;27;19899;-46
2022/07/16 11:36:43;;;;;;;;;;;25.50;91.00;;;;;;5147411;27;19916;-50
2022/07/16 11:39:13;;;;;;;;;;;25.60;91.00;;;;;;5148135;27;20065;-41
2022/07/16 11:41:40;;;;;;;;;;;25.60;90.90;;;;;;5147889;27;19907;-42
2022/07/16 11:44:09;;;;;;;;;;;25.60;90.90;;;;;;5147841;27;19930;-47
2022/07/16 11:46:41;;;;;;;;;;;25.70;90.70;;;;;;5146522;27;20192;-42
2022/07/16 11:49:07;;;;;;;;;;;25.90;90.60;;;;;;5147863;27;19930;-45
2022/07/16 11:51:37;;;;;;;;;;;26.00;90.40;;;;;;5147441;27;20095;-43
2022/07/16 11:54:03;;;;;;;;;;;26.10;90.20;;;;;;5147840;27;19903;-47
2022/07/16 11:56:36;;;;;;;;;;;26.20;90.20;;;;;;5147485;27;20102;-44
2022/07/16 11:59:04;;;;;;;;;;;26.10;90.20;;;;;;5147253;27;20172;-42
2022/07/16 12:01:31;;;;;;;;;;;26.10;90.40;;;;;;5146216;27;19903;-43
2022/07/16 12:03:57;;;;;;;;;;;26.10;90.50;;;;;;5147362;27;19908;-43
2022/07/16 12:06:23;;;;;;;;;;;26.10;90.70;;;;;;5143967;27;19903;-46
2022/07/16 12:08:50;;;;;;;;;;;26.10;90.70;;;;;;5146477;27;19935;-44
2022/07/16 12:11:16;;;;;;;;;;;26.10;90.80;;;;;;5147115;27;19941;-42
2022/07/16 12:13:53;;;;;;;;;;;26.10;91.00;;;;;;5147371;27;19910;-50
2022/07/16 12:16:20;;;;;;;;;;;26.10;91.10;;;;;;5147181;27;19925;-42
2022/07/16 12:19:02;;;;;;;;;;;26.10;90.80;;;;;;5146820;27;20191;-40
2022/07/16 12:21:38;;;;;;;;;;;26.20;90.80;;;;;;5146958;27;19966;-41
2022/07/16 12:24:04;;;;;;;;;;;26.20;90.90;;;;;;5146966;27;19978;-43
2022/07/16 12:26:32;;;;;;;;;;;26.20;91.00;;;;;;5147081;27;19903;-46
2022/07/16 12:28:58;;;;;;;;;;;26.20;91.00;;;;;;5147244;27;19903;-42
2022/07/16 12:31:29;;;;;;;;;;;26.30;91.00;;;;;;5146805;27;19903;-50
2022/07/16 12:33:56;;;;;;;;;;;26.30;91.10;;;;;;5146800;27;19973;-42
2022/07/16 12:36:28;;;;;;;;;;;26.40;91.00;;;;;;5147079;27;20222;-43
2022/07/16 12:39:03;;;;;;;;;;;26.40;90.90;;;;;;5146899;27;19904;-47
2022/07/16 12:41:32;;;;;;;;;;;26.40;90.70;;;;;;5145511;27;19907;-48
2022/07/16 12:44:02;;;;;;;;;;;26.50;90.70;;;;;;5146351;27;19907;-45
2022/07/16 12:46:30;;;;;;;;;;;26.50;90.80;;;;;;5146488;27;19970;-43
2022/07/16 12:49:03;;;;;;;;;;;26.60;90.80;;;;;;5146760;27;19910;-43
2022/07/16 12:51:31;;;;;;;;;;;26.60;90.60;;;;;;5146454;27;19911;-43
2022/07/16 12:53:58;;;;;;;;;;;26.60;90.70;;;;;;5146627;27;19909;-45
2022/07/16 12:59:09;;;;;;;;;;;26.70;90.50;;;;;;5146526;27;19948;-51
2022/07/16 13:01:36;;;;;;;;;;;26.70;90.50;;;;;;5144373;27;19926;-45
2022/07/16 13:04:03;;;;;;;;;;;26.70;90.60;;;;;;5145781;27;19914;-46
2022/07/16 13:06:30;;;;;;;;;;;26.80;90.50;;;;;;5138930;27;19904;-42
2022/07/16 13:08:56;;;;;;;;;;;26.80;90.50;;;;;;5132274;27;19911;-44
2022/07/16 13:11:22;;;;;;;;;;;26.80;90.50;;;;;;5125360;28;19910;-43
2022/07/16 13:13:50;;;;;;;;;;;26.80;90.50;;;;;;5125622;28;19911;-43
2022/07/16 13:16:20;;;;;;;;;;;26.90;90.60;;;;;;5137964;27;19982;-46
2022/07/16 13:18:47;;;;;;;;;;;26.90;90.70;;;;;;5145856;27;20180;-43
2022/07/16 13:21:13;;;;;;;;;;;26.90;90.50;;;;;;5145948;27;19985;-43
2022/07/16 13:23:40;;;;;;;;;;;26.90;90.50;;;;;;5145953;27;19982;-45
2022/07/16 13:26:06;;;;;;;;;;;26.90;90.50;;;;;;5145771;27;19903;-42
2022/07/16 13:28:33;;;;;;;;;;;26.90;90.60;;;;;;5145873;27;19919;-51
2022/07/16 13:30:59;;;;;;;;;;;27.00;90.50;;;;;;5145795;27;20196;-52
2022/07/16 13:33:25;;;;;;;;;;;27.00;90.60;;;;;;5145595;27;19920;-40
2022/07/16 13:35:52;;;;;;;;;;;27.00;90.60;;;;;;5145534;27;20111;-53
2022/07/16 13:38:19;;;;;;;;;;;27.00;90.60;;;;;;5145291;27;19900;-42
2022/07/16 13:40:45;;;;;;;;;;;27.00;90.70;;;;;;5145322;27;19907;-43
2022/07/16 13:43:11;;;;;;;;;;;27.00;90.70;;;;;;5145318;27;20183;-43
2022/07/16 13:45:38;;;;;;;;;;;27.10;90.60;;;;;;5145381;27;19907;-42
2022/07/16 13:48:04;;;;;;;;;;;27.10;90.60;;;;;;5145191;27;19940;-43
2022/07/16 13:50:30;;;;;;;;;;;27.10;90.60;;;;;;5145601;27;19899;-43
2022/07/16 13:52:57;;;;;;;;;;;27.10;90.50;;;;;;5145300;27;19907;-42
2022/07/16 13:55:23;;;;;;;;;;;27.10;90.60;;;;;;5145589;27;20226;-46
2022/07/16 14:00:34;;;;;;;;;;;27.30;90.80;;;;;;5145804;27;19906;-50
2022/07/16 14:03:00;;;;;;;;;;;27.40;90.50;;;;;;5144966;28;19912;-44
2022/07/16 14:05:26;;;;;;;;;;;27.40;90.20;;;;;;5145504;28;19907;-45
2022/07/16 14:07:52;;;;;;;;;;;27.50;90.40;;;;;;5145033;28;20240;-47
2022/07/16 14:10:19;;;;;;;;;;;27.50;90.40;;;;;;5145361;28;20086;-43
2022/07/16 14:12:45;;;;;;;;;;;27.50;90.30;;;;;;5138965;28;19945;-45
2022/07/16 14:15:12;;;;;;;;;;;27.60;90.30;;;;;;5122520;28;20101;-47
2022/07/16 14:17:39;;;;;;;;;;;27.60;90.00;;;;;;5135486;28;19907;-45
2022/07/16 14:20:06;;;;;;;;;;;27.70;89.90;;;;;;5124815;28;19899;-44
2022/07/16 14:22:33;;;;;;;;;;;27.70;89.70;;;;;;5125104;28;19929;-49
2022/07/16 14:24:59;;;;;;;;;;;27.70;88.90;;;;;;5128814;28;19934;-45
2022/07/16 14:27:25;;;;;;;;;;;27.80;89.10;;;;;;5128666;28;19907;-43